sensor_id;sensor_type;location;lat;lon;timestamp;pressure;altitude;pressure_sealevel;temperature;humidity
33432;BME280;35187;31.882;34.828;2023-05-29T00:00:11;100120;;;24;54
33432;BME280;35187;31.882;34.828;2023-05-29T00:02:40;100120;;;24;54
33432;BME280;35187;31.882;34.828;2023-05-29T00:05:09;100120;;;24;54
33432;BME280;35187;31.882;34.828;2023-05-29T00:07:39;100120;;;24;54
33432;BME280;35187;31.882;34.828;2023-05-29T00:10:11;100110;;;24;54
33432;BME280;35187;31.882;34.828;2023-05-29T00:12:40;100100;;;24;54
33432;BME280;35187;31.882;34.828;2023-05-29T00:15:10;100100;;;24;54
33432;BME280;35187;31.882;34.828;2023-05-29T00:17:39;100110;;;24;54
33432;BME280;35187;31.882;34.828;2023-05-29T00:20:10;100100;;;24;54
33432;BME280;35187;31.882;34.828;2023-05-29T00:22:40;100100;;;24;54
33432;BME280;35187;31.882;34.828;2023-05-29T00:25:10;100100;;;24;53
33432;BME280;35187;31.882;34.828;2023-05-29T00:27:39;100110;;;24;53
33432;BME280;35187;31.882;34.828;2023-05-29T00:30:09;100120;;;24;53
33432;BME280;35187;31.882;34.828;2023-05-29T00:32:39;100120;;;24;53
33432;BME280;35187;31.882;34.828;2023-05-29T00:35:09;100120;;;24;53
33432;BME280;35187;31.882;34.828;2023-05-29T00:37:39;100130;;;24;53
33432;BME280;35187;31.882;34.828;2023-05-29T00:40:09;100130;;;24;53
33432;BME280;35187;31.882;34.828;2023-05-29T00:42:38;100130;;;24;53
33432;BME280;35187;31.882;34.828;2023-05-29T00:45:08;100130;;;24;53
33432;BME280;35187;31.882;34.828;2023-05-29T00:47:38;100140;;;24;53
33432;BME280;35187;31.882;34.828;2023-05-29T00:50:11;100140;;;24;53
33432;BME280;35187;31.882;34.828;2023-05-29T00:52:41;100140;;;24;53
33432;BME280;35187;31.882;34.828;2023-05-29T00:55:11;100140;;;24;53
33432;BME280;35187;31.882;34.828;2023-05-29T00:57:42;100140;;;24;53
33432;BME280;35187;31.882;34.828;2023-05-29T01:00:11;100140;;;24;53
33432;BME280;35187;31.882;34.828;2023-05-29T01:02:43;100140;;;24;53
33432;BME280;35187;31.882;34.828;2023-05-29T01:05:13;100140;;;24;53
33432;BME280;35187;31.882;34.828;2023-05-29T01:07:42;100140;;;24;53
33432;BME280;35187;31.882;34.828;2023-05-29T01:10:14;100140;;;24;53
33432;BME280;35187;31.882;34.828;2023-05-29T01:12:49;100140;;;24;53
33432;BME280;35187;31.882;34.828;2023-05-29T01:15:29;100140;;;24;53
33432;BME280;35187;31.882;34.828;2023-05-29T01:18:15;100140;;;24;53
33432;BME280;35187;31.882;34.828;2023-05-29T01:20:55;100140;;;24;53
33432;BME280;35187;31.882;34.828;2023-05-29T01:23:43;100140;;;24;53
33432;BME280;35187;31.882;34.828;2023-05-29T01:26:41;100150;;;24;53
33432;BME280;35187;31.882;34.828;2023-05-29T01:29:15;100150;;;24;53
33432;BME280;35187;31.882;34.828;2023-05-29T01:31:46;100150;;;24;53
33432;BME280;35187;31.882;34.828;2023-05-29T01:34:18;100150;;;24;53
33432;BME280;35187;31.882;34.828;2023-05-29T01:36:48;100150;;;24;53
33432;BME280;35187;31.882;34.828;2023-05-29T01:39:17;100160;;;24;54
33432;BME280;35187;31.882;34.828;2023-05-29T01:41:47;100160;;;24;54
33432;BME280;35187;31.882;34.828;2023-05-29T01:44:17;100150;;;24;53
33432;BME280;35187;31.882;34.828;2023-05-29T01:46:47;100150;;;24;54
33432;BME280;35187;31.882;34.828;2023-05-29T01:49:17;100160;;;24;54
33432;BME280;35187;31.882;34.828;2023-05-29T01:51:47;100160;;;24;54
33432;BME280;35187;31.882;34.828;2023-05-29T01:54:17;100160;;;24;54
33432;BME280;35187;31.882;34.828;2023-05-29T01:56:47;100170;;;24;54
33432;BME280;35187;31.882;34.828;2023-05-29T01:59:18;100170;;;24;54
33432;BME280;35187;31.882;34.828;2023-05-29T02:01:48;100170;;;24;54
33432;BME280;35187;31.882;34.828;2023-05-29T02:04:20;100170;;;24;53
33432;BME280;35187;31.882;34.828;2023-05-29T02:06:49;100170;;;24;53
33432;BME280;35187;31.882;34.828;2023-05-29T02:09:18;100180;;;24;53
33432;BME280;35187;31.882;34.828;2023-05-29T02:11:47;100180;;;24;53
33432;BME280;35187;31.882;34.828;2023-05-29T02:14:16;100180;;;24;53
33432;BME280;35187;31.882;34.828;2023-05-29T02:16:45;100190;;;24;53
33432;BME280;35187;31.882;34.828;2023-05-29T02:19:14;100190;;;24;53
33432;BME280;35187;31.882;34.828;2023-05-29T02:21:43;100190;;;24;53
33432;BME280;35187;31.882;34.828;2023-05-29T02:24:12;100200;;;24;53
33432;BME280;35187;31.882;34.828;2023-05-29T02:26:41;100190;;;24;53
33432;BME280;35187;31.882;34.828;2023-05-29T02:29:10;100190;;;24;53
33432;BME280;35187;31.882;34.828;2023-05-29T02:31:39;100190;;;24;53
33432;BME280;35187;31.882;34.828;2023-05-29T02:34:09;100200;;;24;53
33432;BME280;35187;31.882;34.828;2023-05-29T02:36:39;100210;;;24;53
33432;BME280;35187;31.882;34.828;2023-05-29T02:39:08;100210;;;24;53
33432;BME280;35187;31.882;34.828;2023-05-29T02:41:36;100210;;;24;53
33432;BME280;35187;31.882;34.828;2023-05-29T02:44:05;100210;;;24;53
33432;BME280;35187;31.882;34.828;2023-05-29T02:46:34;100210;;;24;52
33432;BME280;35187;31.882;34.828;2023-05-29T02:49:04;100210;;;24;52
33432;BME280;35187;31.882;34.828;2023-05-29T02:51:34;100210;;;24;52
33432;BME280;35187;31.882;34.828;2023-05-29T02:54:04;100220;;;24;52
33432;BME280;35187;31.882;34.828;2023-05-29T02:56:33;100220;;;24;52
33432;BME280;35187;31.882;34.828;2023-05-29T02:59:05;100230;;;24;52
33432;BME280;35187;31.882;34.828;2023-05-29T03:01:34;100220;;;24;52
33432;BME280;35187;31.882;34.828;2023-05-29T03:04:07;100220;;;24;52
33432;BME280;35187;31.882;34.828;2023-05-29T03:06:36;100230;;;24;52
33432;BME280;35187;31.882;34.828;2023-05-29T03:09:05;100240;;;24;51
33432;BME280;35187;31.882;34.828;2023-05-29T03:11:35;100240;;;24;51
33432;BME280;35187;31.882;34.828;2023-05-29T03:14:04;100240;;;24;51
33432;BME280;35187;31.882;34.828;2023-05-29T03:16:34;100230;;;24;51
33432;BME280;35187;31.882;34.828;2023-05-29T03:19:09;100230;;;24;51
33432;BME280;35187;31.882;34.828;2023-05-29T03:21:39;100230;;;24;51
33432;BME280;35187;31.882;34.828;2023-05-29T03:24:08;100230;;;24;51
33432;BME280;35187;31.882;34.828;2023-05-29T03:26:37;100240;;;24;51
33432;BME280;35187;31.882;34.828;2023-05-29T03:29:06;100240;;;24;51
33432;BME280;35187;31.882;34.828;2023-05-29T03:31:35;100240;;;24;51
33432;BME280;35187;31.882;34.828;2023-05-29T03:34:05;100240;;;24;51
33432;BME280;35187;31.882;34.828;2023-05-29T03:36:34;100240;;;24;51
33432;BME280;35187;31.882;34.828;2023-05-29T03:39:04;100250;;;24;51
33432;BME280;35187;31.882;34.828;2023-05-29T03:41:33;100250;;;24;51
33432;BME280;35187;31.882;34.828;2023-05-29T03:44:03;100240;;;24;51
33432;BME280;35187;31.882;34.828;2023-05-29T03:46:32;100240;;;24;51
33432;BME280;35187;31.882;34.828;2023-05-29T03:49:01;100240;;;24;51
33432;BME280;35187;31.882;34.828;2023-05-29T03:51:30;100240;;;24;51
33432;BME280;35187;31.882;34.828;2023-05-29T03:53:59;100240;;;24;51
33432;BME280;35187;31.882;34.828;2023-05-29T03:56:28;100240;;;24;51
33432;BME280;35187;31.882;34.828;2023-05-29T03:58:57;100250;;;24;51
33432;BME280;35187;31.882;34.828;2023-05-29T04:01:26;100260;;;24;51
33432;BME280;35187;31.882;34.828;2023-05-29T04:03:55;100260;;;24;51
33432;BME280;35187;31.882;34.828;2023-05-29T04:06:25;100260;;;24;51
33432;BME280;35187;31.882;34.828;2023-05-29T04:08:54;100260;;;24;51
33432;BME280;35187;31.882;34.828;2023-05-29T04:11:23;100260;;;24;51
33432;BME280;35187;31.882;34.828;2023-05-29T04:13:52;100260;;;24;51
33432;BME280;35187;31.882;34.828;2023-05-29T04:16:21;100270;;;24;51
33432;BME280;35187;31.882;34.828;2023-05-29T04:18:50;100270;;;24;51
33432;BME280;35187;31.882;34.828;2023-05-29T04:21:19;100270;;;24;51
33432;BME280;35187;31.882;34.828;2023-05-29T04:23:48;100270;;;24;51
33432;BME280;35187;31.882;34.828;2023-05-29T04:26:17;100260;;;24;51
33432;BME280;35187;31.882;34.828;2023-05-29T04:28:47;100270;;;24;51
33432;BME280;35187;31.882;34.828;2023-05-29T04:31:17;100260;;;24;51
33432;BME280;35187;31.882;34.828;2023-05-29T04:33:46;100260;;;24;51
33432;BME280;35187;31.882;34.828;2023-05-29T04:36:15;100260;;;24;51
33432;BME280;35187;31.882;34.828;2023-05-29T04:38:44;100270;;;24;51
33432;BME280;35187;31.882;34.828;2023-05-29T04:41:12;100280;;;24;51
33432;BME280;35187;31.882;34.828;2023-05-29T04:43:42;100280;;;24;51
33432;BME280;35187;31.882;34.828;2023-05-29T04:46:11;100290;;;24;51
33432;BME280;35187;31.882;34.828;2023-05-29T04:48:41;100290;;;24;51
33432;BME280;35187;31.882;34.828;2023-05-29T04:51:10;100290;;;24;51
33432;BME280;35187;31.882;34.828;2023-05-29T04:53:39;100290;;;24;51
33432;BME280;35187;31.882;34.828;2023-05-29T04:56:09;100290;;;24;51
33432;BME280;35187;31.882;34.828;2023-05-29T04:58:38;100290;;;24;51
33432;BME280;35187;31.882;34.828;2023-05-29T05:01:07;100290;;;24;51
33432;BME280;35187;31.882;34.828;2023-05-29T05:03:38;100280;;;24;51
33432;BME280;35187;31.882;34.828;2023-05-29T05:06:08;100280;;;24;51
33432;BME280;35187;31.882;34.828;2023-05-29T05:08:37;100280;;;24;51
33432;BME280;35187;31.882;34.828;2023-05-29T05:11:06;100280;;;24;51
33432;BME280;35187;31.882;34.828;2023-05-29T05:13:35;100270;;;24;51
33432;BME280;35187;31.882;34.828;2023-05-29T05:16:05;100270;;;24;51
33432;BME280;35187;31.882;34.828;2023-05-29T05:18:35;100270;;;24;51
33432;BME280;35187;31.882;34.828;2023-05-29T05:21:04;100270;;;24;51
33432;BME280;35187;31.882;34.828;2023-05-29T05:23:33;100280;;;24;51
33432;BME280;35187;31.882;34.828;2023-05-29T05:26:02;100280;;;24;51
33432;BME280;35187;31.882;34.828;2023-05-29T05:28:31;100280;;;24;51
33432;BME280;35187;31.882;34.828;2023-05-29T05:31:01;100290;;;24;51
33432;BME280;35187;31.882;34.828;2023-05-29T05:33:30;100290;;;24;51
33432;BME280;35187;31.882;34.828;2023-05-29T05:35:59;100290;;;24;51
33432;BME280;35187;31.882;34.828;2023-05-29T05:38:28;100290;;;24;51
33432;BME280;35187;31.882;34.828;2023-05-29T05:40:58;100300;;;24;51
33432;BME280;35187;31.882;34.828;2023-05-29T05:43:27;100300;;;24;50
33432;BME280;35187;31.882;34.828;2023-05-29T05:45:56;100300;;;24;51
33432;BME280;35187;31.882;34.828;2023-05-29T05:48:26;100310;;;24;50
33432;BME280;35187;31.882;34.828;2023-05-29T05:50:55;100310;;;24;50
33432;BME280;35187;31.882;34.828;2023-05-29T05:53:25;100320;;;24;50
33432;BME280;35187;31.882;34.828;2023-05-29T05:55:54;100320;;;24;50
33432;BME280;35187;31.882;34.828;2023-05-29T05:58:23;100320;;;24;50
33432;BME280;35187;31.882;34.828;2023-05-29T06:00:53;100320;;;24;50
33432;BME280;35187;31.882;34.828;2023-05-29T06:03:22;100320;;;24;50
33432;BME280;35187;31.882;34.828;2023-05-29T06:05:51;100320;;;24;50
33432;BME280;35187;31.882;34.828;2023-05-29T06:08:22;100320;;;24;50
33432;BME280;35187;31.882;34.828;2023-05-29T06:10:51;100320;;;24;50
33432;BME280;35187;31.882;34.828;2023-05-29T06:13:20;100320;;;24;50
33432;BME280;35187;31.882;34.828;2023-05-29T06:15:49;100320;;;24;50
33432;BME280;35187;31.882;34.828;2023-05-29T06:18:18;100320;;;24;50
33432;BME280;35187;31.882;34.828;2023-05-29T06:20:48;100310;;;24;50
33432;BME280;35187;31.882;34.828;2023-05-29T06:23:17;100310;;;24;50
33432;BME280;35187;31.882;34.828;2023-05-29T06:25:46;100310;;;24;50
33432;BME280;35187;31.882;34.828;2023-05-29T06:28:15;100310;;;24;50
33432;BME280;35187;31.882;34.828;2023-05-29T06:30:44;100310;;;24;50
33432;BME280;35187;31.882;34.828;2023-05-29T06:33:14;100310;;;24;50
33432;BME280;35187;31.882;34.828;2023-05-29T06:35:43;100310;;;24;50
33432;BME280;35187;31.882;34.828;2023-05-29T06:38:13;100310;;;24;50
33432;BME280;35187;31.882;34.828;2023-05-29T06:40:42;100320;;;24;50
33432;BME280;35187;31.882;34.828;2023-05-29T06:43:11;100310;;;24;50
33432;BME280;35187;31.882;34.828;2023-05-29T06:45:40;100310;;;24;49
33432;BME280;35187;31.882;34.828;2023-05-29T06:48:09;100320;;;24;49
33432;BME280;35187;31.882;34.828;2023-05-29T06:50:38;100320;;;24;50
33432;BME280;35187;31.882;34.828;2023-05-29T06:53:07;100320;;;24;50
33432;BME280;35187;31.882;34.828;2023-05-29T06:55:37;100320;;;24;50
33432;BME280;35187;31.882;34.828;2023-05-29T06:58:06;100330;;;24;50
33432;BME280;35187;31.882;34.828;2023-05-29T07:00:35;100340;;;24;50
33432;BME280;35187;31.882;34.828;2023-05-29T07:03:04;100340;;;24;50
33432;BME280;35187;31.882;34.828;2023-05-29T07:05:34;100340;;;24;50
33432;BME280;35187;31.882;34.828;2023-05-29T07:08:03;100350;;;24;50
33432;BME280;35187;31.882;34.828;2023-05-29T07:10:32;100350;;;24;50
33432;BME280;35187;31.882;34.828;2023-05-29T07:13:03;100350;;;24;50
33432;BME280;35187;31.882;34.828;2023-05-29T07:15:32;100350;;;24;50
33432;BME280;35187;31.882;34.828;2023-05-29T07:18:02;100350;;;24;50
33432;BME280;35187;31.882;34.828;2023-05-29T07:20:31;100360;;;24;50
33432;BME280;35187;31.882;34.828;2023-05-29T07:23:01;100360;;;24;50
33432;BME280;35187;31.882;34.828;2023-05-29T07:25:30;100360;;;24;50
33432;BME280;35187;31.882;34.828;2023-05-29T07:28:00;100360;;;24;50
33432;BME280;35187;31.882;34.828;2023-05-29T07:30:29;100360;;;24;50
33432;BME280;35187;31.882;34.828;2023-05-29T07:32:58;100360;;;24;50
33432;BME280;35187;31.882;34.828;2023-05-29T07:35:28;100360;;;24;50
33432;BME280;35187;31.882;34.828;2023-05-29T07:38:05;100370;;;24;50
33432;BME280;35187;31.882;34.828;2023-05-29T07:40:34;100370;;;24;50
33432;BME280;35187;31.882;34.828;2023-05-29T07:43:05;100370;;;24;50
33432;BME280;35187;31.882;34.828;2023-05-29T07:45:34;100370;;;24;50
33432;BME280;35187;31.882;34.828;2023-05-29T07:48:03;100370;;;24;50
33432;BME280;35187;31.882;34.828;2023-05-29T07:50:32;100360;;;24;50
33432;BME280;35187;31.882;34.828;2023-05-29T07:53:02;100360;;;24;50
33432;BME280;35187;31.882;34.828;2023-05-29T07:55:31;100360;;;24;50
33432;BME280;35187;31.882;34.828;2023-05-29T07:58:00;100360;;;24;50
33432;BME280;35187;31.882;34.828;2023-05-29T08:00:30;100360;;;24;50
33432;BME280;35187;31.882;34.828;2023-05-29T08:02:59;100370;;;24;50
33432;BME280;35187;31.882;34.828;2023-05-29T08:05:28;100370;;;24;50
33432;BME280;35187;31.882;34.828;2023-05-29T08:07:57;100370;;;24;49
33432;BME280;35187;31.882;34.828;2023-05-29T08:10:26;100370;;;24;49
33432;BME280;35187;31.882;34.828;2023-05-29T08:12:55;100370;;;24;49
33432;BME280;35187;31.882;34.828;2023-05-29T08:15:25;100370;;;24;49
33432;BME280;35187;31.882;34.828;2023-05-29T08:17:54;100370;;;24;49
33432;BME280;35187;31.882;34.828;2023-05-29T08:20:23;100370;;;24;49
33432;BME280;35187;31.882;34.828;2023-05-29T08:22:52;100370;;;24;49
33432;BME280;35187;31.882;34.828;2023-05-29T08:25:22;100370;;;24;49
33432;BME280;35187;31.882;34.828;2023-05-29T08:27:52;100370;;;24;49
33432;BME280;35187;31.882;34.828;2023-05-29T08:30:20;100380;;;24;49
33432;BME280;35187;31.882;34.828;2023-05-29T08:32:49;100370;;;24;49
33432;BME280;35187;31.882;34.828;2023-05-29T08:35:19;100370;;;24;49
33432;BME280;35187;31.882;34.828;2023-05-29T08:37:48;100360;;;24;49
33432;BME280;35187;31.882;34.828;2023-05-29T08:40:17;100360;;;24;49
33432;BME280;35187;31.882;34.828;2023-05-29T08:42:55;100360;;;24;49
33432;BME280;35187;31.882;34.828;2023-05-29T08:45:25;100360;;;24;49
33432;BME280;35187;31.882;34.828;2023-05-29T08:47:54;100360;;;24;49
33432;BME280;35187;31.882;34.828;2023-05-29T08:50:26;100360;;;24;49
33432;BME280;35187;31.882;34.828;2023-05-29T08:52:56;100360;;;24;49
33432;BME280;35187;31.882;34.828;2023-05-29T08:55:26;100360;;;24;49
33432;BME280;35187;31.882;34.828;2023-05-29T08:57:55;100360;;;24;49
33432;BME280;35187;31.882;34.828;2023-05-29T09:00:25;100360;;;24;50
33432;BME280;35187;31.882;34.828;2023-05-29T09:02:54;100360;;;24;49
33432;BME280;35187;31.882;34.828;2023-05-29T09:05:23;100350;;;24;49
33432;BME280;35187;31.882;34.828;2023-05-29T09:07:53;100360;;;24;50
33432;BME280;35187;31.882;34.828;2023-05-29T09:10:22;100350;;;24;49
33432;BME280;35187;31.882;34.828;2023-05-29T09:12:51;100350;;;24;49
33432;BME280;35187;31.882;34.828;2023-05-29T09:15:21;100350;;;24;49
33432;BME280;35187;31.882;34.828;2023-05-29T09:17:51;100350;;;24;50
33432;BME280;35187;31.882;34.828;2023-05-29T09:20:22;100350;;;24;49
33432;BME280;35187;31.882;34.828;2023-05-29T09:22:57;100350;;;24;49
33432;BME280;35187;31.882;34.828;2023-05-29T09:25:28;100350;;;24;49
33432;BME280;35187;31.882;34.828;2023-05-29T09:27:59;100350;;;24;49
33432;BME280;35187;31.882;34.828;2023-05-29T09:30:34;100350;;;24;49
33432;BME280;35187;31.882;34.828;2023-05-29T09:33:05;100360;;;24;49
33432;BME280;35187;31.882;34.828;2023-05-29T09:35:35;100360;;;24;49
33432;BME280;35187;31.882;34.828;2023-05-29T09:38:05;100360;;;24;49
33432;BME280;35187;31.882;34.828;2023-05-29T09:40:37;100360;;;24;49
33432;BME280;35187;31.882;34.828;2023-05-29T09:43:09;100360;;;24;49
33432;BME280;35187;31.882;34.828;2023-05-29T09:45:40;100360;;;24;49
33432;BME280;35187;31.882;34.828;2023-05-29T09:48:13;100360;;;24;49
33432;BME280;35187;31.882;34.828;2023-05-29T09:50:44;100360;;;24;49
33432;BME280;35187;31.882;34.828;2023-05-29T09:53:22;100370;;;24;49
33432;BME280;35187;31.882;34.828;2023-05-29T09:55:52;100370;;;24;49
33432;BME280;35187;31.882;34.828;2023-05-29T09:58:22;100370;;;24;49
33432;BME280;35187;31.882;34.828;2023-05-29T10:00:52;100380;;;24;49
33432;BME280;35187;31.882;34.828;2023-05-29T10:03:21;100380;;;24;49
33432;BME280;35187;31.882;34.828;2023-05-29T10:05:53;100380;;;24;49
33432;BME280;35187;31.882;34.828;2023-05-29T10:08:23;100380;;;24;49
33432;BME280;35187;31.882;34.828;2023-05-29T10:11:00;100370;;;24;49
33432;BME280;35187;31.882;34.828;2023-05-29T10:13:34;100370;;;24;49
33432;BME280;35187;31.882;34.828;2023-05-29T10:16:05;100370;;;24;49
33432;BME280;35187;31.882;34.828;2023-05-29T10:18:38;100370;;;24;49
33432;BME280;35187;31.882;34.828;2023-05-29T10:21:08;100370;;;24;49
33432;BME280;35187;31.882;34.828;2023-05-29T10:23:45;100370;;;24;49
33432;BME280;35187;31.882;34.828;2023-05-29T10:26:19;100370;;;24;49
33432;BME280;35187;31.882;34.828;2023-05-29T10:28:57;100380;;;24;49
33432;BME280;35187;31.882;34.828;2023-05-29T10:31:32;100380;;;24;49
33432;BME280;35187;31.882;34.828;2023-05-29T10:34:12;100380;;;24;49
33432;BME280;35187;31.882;34.828;2023-05-29T10:36:47;100380;;;24;49
33432;BME280;35187;31.882;34.828;2023-05-29T10:39:20;100380;;;24;49
33432;BME280;35187;31.882;34.828;2023-05-29T10:41:50;100380;;;24;49
33432;BME280;35187;31.882;34.828;2023-05-29T10:44:51;100380;;;24;49
33432;BME280;35187;31.882;34.828;2023-05-29T10:47:23;100380;;;24;49
33432;BME280;35187;31.882;34.828;2023-05-29T10:49:52;100380;;;24;49
33432;BME280;35187;31.882;34.828;2023-05-29T10:52:31;100380;;;24;49
33432;BME280;35187;31.882;34.828;2023-05-29T10:55:00;100380;;;24;49
33432;BME280;35187;31.882;34.828;2023-05-29T10:57:29;100380;;;24;49
33432;BME280;35187;31.882;34.828;2023-05-29T11:00:00;100380;;;24;49
33432;BME280;35187;31.882;34.828;2023-05-29T11:02:30;100380;;;24;49
33432;BME280;35187;31.882;34.828;2023-05-29T11:05:24;100380;;;24;49
33432;BME280;35187;31.882;34.828;2023-05-29T11:07:57;100360;;;24;49
33432;BME280;35187;31.882;34.828;2023-05-29T11:10:44;100380;;;24;49
33432;BME280;35187;31.882;34.828;2023-05-29T11:13:33;100370;;;24;49
33432;BME280;35187;31.882;34.828;2023-05-29T11:16:10;100380;;;24;49
33432;BME280;35187;31.882;34.828;2023-05-29T11:18:44;100380;;;24;49
33432;BME280;35187;31.882;34.828;2023-05-29T11:21:23;100380;;;24;49
33432;BME280;35187;31.882;34.828;2023-05-29T11:23:55;100380;;;24;49
33432;BME280;35187;31.882;34.828;2023-05-29T11:26:27;100380;;;24;49
33432;BME280;35187;31.882;34.828;2023-05-29T11:28:59;100380;;;24;49
33432;BME280;35187;31.882;34.828;2023-05-29T11:31:28;100380;;;24;49
33432;BME280;35187;31.882;34.828;2023-05-29T11:34:01;100380;;;24;49
33432;BME280;35187;31.882;34.828;2023-05-29T11:36:31;100380;;;24;49
33432;BME280;35187;31.882;34.828;2023-05-29T11:39:00;100380;;;24;49
33432;BME280;35187;31.882;34.828;2023-05-29T11:41:30;100380;;;24;49
33432;BME280;35187;31.882;34.828;2023-05-29T11:44:01;100380;;;24;49
33432;BME280;35187;31.882;34.828;2023-05-29T11:46:30;100380;;;24;49
33432;BME280;35187;31.882;34.828;2023-05-29T11:48:59;100380;;;24;49
33432;BME280;35187;31.882;34.828;2023-05-29T11:51:29;100390;;;24;49
33432;BME280;35187;31.882;34.828;2023-05-29T11:53:58;100390;;;24;49
33432;BME280;35187;31.882;34.828;2023-05-29T11:56:28;100380;;;24;47
33432;BME280;35187;31.882;34.828;2023-05-29T11:58:59;100380;;;24;48
33432;BME280;35187;31.882;34.828;2023-05-29T12:01:28;100380;;;24;48
33432;BME280;35187;31.882;34.828;2023-05-29T12:03:57;100380;;;24;49
33432;BME280;35187;31.882;34.828;2023-05-29T12:06:34;100380;;;24;49
33432;BME280;35187;31.882;34.828;2023-05-29T12:09:04;100380;;;24;49
33432;BME280;35187;31.882;34.828;2023-05-29T12:11:34;100380;;;24;48
33432;BME280;35187;31.882;34.828;2023-05-29T12:14:03;100380;;;24;48
33432;BME280;35187;31.882;34.828;2023-05-29T12:16:34;100390;;;24;48
33432;BME280;35187;31.882;34.828;2023-05-29T12:19:03;100380;;;24;48
33432;BME280;35187;31.882;34.828;2023-05-29T12:21:32;100380;;;24;48
33432;BME280;35187;31.882;34.828;2023-05-29T12:24:02;100380;;;24;48
33432;BME280;35187;31.882;34.828;2023-05-29T12:26:31;100380;;;24;48
33432;BME280;35187;31.882;34.828;2023-05-29T12:29:03;100380;;;24;48
33432;BME280;35187;31.882;34.828;2023-05-29T12:31:32;100380;;;24;48
33432;BME280;35187;31.882;34.828;2023-05-29T12:34:06;100390;;;24;48
33432;BME280;35187;31.882;34.828;2023-05-29T12:36:39;100390;;;24;48
33432;BME280;35187;31.882;34.828;2023-05-29T12:39:08;100390;;;24;48
33432;BME280;35187;31.882;34.828;2023-05-29T12:41:38;100390;;;24;48
33432;BME280;35187;31.882;34.828;2023-05-29T12:44:07;100390;;;24;48
33432;BME280;35187;31.882;34.828;2023-05-29T12:46:38;100390;;;24;48
33432;BME280;35187;31.882;34.828;2023-05-29T12:49:15;100390;;;24;48
33432;BME280;35187;31.882;34.828;2023-05-29T12:51:45;100390;;;24;48
33432;BME280;35187;31.882;34.828;2023-05-29T12:54:16;100390;;;24;48
33432;BME280;35187;31.882;34.828;2023-05-29T12:56:45;100400;;;24;48
33432;BME280;35187;31.882;34.828;2023-05-29T12:59:19;100400;;;24;48
33432;BME280;35187;31.882;34.828;2023-05-29T13:01:48;100400;;;24;48
33432;BME280;35187;31.882;34.828;2023-05-29T13:04:17;100400;;;24;48
33432;BME280;35187;31.882;34.828;2023-05-29T13:06:46;100400;;;24;48
33432;BME280;35187;31.882;34.828;2023-05-29T13:09:15;100400;;;24;48
33432;BME280;35187;31.882;34.828;2023-05-29T13:11:44;100400;;;24;48
33432;BME280;35187;31.882;34.828;2023-05-29T13:14:13;100400;;;24;48
33432;BME280;35187;31.882;34.828;2023-05-29T13:16:42;100390;;;24;48
33432;BME280;35187;31.882;34.828;2023-05-29T13:19:11;100400;;;24;48
33432;BME280;35187;31.882;34.828;2023-05-29T13:21:40;100400;;;24;47
33432;BME280;35187;31.882;34.828;2023-05-29T13:24:09;100400;;;23;43
33432;BME280;35187;31.882;34.828;2023-05-29T13:26:38;100400;;;23;40
33432;BME280;35187;31.882;34.828;2023-05-29T13:29:07;100400;;;23;45
33432;BME280;35187;31.882;34.828;2023-05-29T13:31:36;100400;;;23;45
33432;BME280;35187;31.882;34.828;2023-05-29T13:34:06;100400;;;23;44
33432;BME280;35187;31.882;34.828;2023-05-29T13:36:35;100400;;;23;44
33432;BME280;35187;31.882;34.828;2023-05-29T13:39:04;100400;;;24;44
33432;BME280;35187;31.882;34.828;2023-05-29T13:41:33;100400;;;23;44
33432;BME280;35187;31.882;34.828;2023-05-29T13:44:03;100400;;;24;44
33432;BME280;35187;31.882;34.828;2023-05-29T13:46:32;100390;;;24;44
33432;BME280;35187;31.882;34.828;2023-05-29T13:49:02;100390;;;23;44
33432;BME280;35187;31.882;34.828;2023-05-29T13:51:32;100390;;;23;44
33432;BME280;35187;31.882;34.828;2023-05-29T13:54:01;100390;;;24;44
33432;BME280;35187;31.882;34.828;2023-05-29T13:56:30;100380;;;24;45
33432;BME280;35187;31.882;34.828;2023-05-29T13:58:59;100380;;;24;45
33432;BME280;35187;31.882;34.828;2023-05-29T14:01:28;100390;;;24;45
33432;BME280;35187;31.882;34.828;2023-05-29T14:03:57;100400;;;24;45
33432;BME280;35187;31.882;34.828;2023-05-29T14:06:26;100400;;;24;45
33432;BME280;35187;31.882;34.828;2023-05-29T14:08:55;100400;;;24;45
33432;BME280;35187;31.882;34.828;2023-05-29T14:11:24;100400;;;24;45
33432;BME280;35187;31.882;34.828;2023-05-29T14:13:53;100400;;;24;45
33432;BME280;35187;31.882;34.828;2023-05-29T14:16:23;100400;;;24;45
33432;BME280;35187;31.882;34.828;2023-05-29T14:18:51;100400;;;24;45
33432;BME280;35187;31.882;34.828;2023-05-29T14:21:21;100410;;;24;45
33432;BME280;35187;31.882;34.828;2023-05-29T14:23:50;100410;;;24;45
33432;BME280;35187;31.882;34.828;2023-05-29T14:26:19;100410;;;24;45
33432;BME280;35187;31.882;34.828;2023-05-29T14:28:48;100410;;;24;45
33432;BME280;35187;31.882;34.828;2023-05-29T14:31:18;100410;;;24;45
33432;BME280;35187;31.882;34.828;2023-05-29T14:33:47;100410;;;24;45
33432;BME280;35187;31.882;34.828;2023-05-29T14:36:17;100410;;;24;45
33432;BME280;35187;31.882;34.828;2023-05-29T14:38:46;100410;;;24;45